sensor_id;sensor_type;location;lat;lon;timestamp;pressure;altitude;pressure_sealevel;temperature;humidity
50696;BME280;36665;51.786;21.594;2023-12-14T00:04:49;91360.17;;;1.95;84.32
50696;BME280;36665;51.786;21.594;2023-12-14T00:13:15;91362.65;;;1.96;84.15
50696;BME280;36665;51.786;21.594;2023-12-14T00:21:39;91358.14;;;1.95;84.25
50696;BME280;36665;51.786;21.594;2023-12-14T00:30:04;91365.03;;;1.96;84.34
50696;BME280;36665;51.786;21.594;2023-12-14T00:38:39;91377.54;;;2.00;84.31
50696;BME280;36665;51.786;21.594;2023-12-14T00:47:03;91373.20;;;1.99;84.24
50696;BME280;36665;51.786;21.594;2023-12-14T00:55:29;91363.95;;;1.96;84.45
50696;BME280;36665;51.786;21.594;2023-12-14T01:03:55;91354.73;;;1.94;84.41
50696;BME280;36665;51.786;21.594;2023-12-14T01:12:20;91357.69;;;1.96;84.32
50696;BME280;36665;51.786;21.594;2023-12-14T01:20:44;91388.21;;;2.03;84.41
50696;BME280;36665;51.786;21.594;2023-12-14T01:29:08;91370.69;;;1.98;84.59
50696;BME280;36665;51.786;21.594;2023-12-14T01:37:34;91347.46;;;1.92;84.41
50696;BME280;36665;51.786;21.594;2023-12-14T01:46:01;91336.25;;;1.87;84.53
50696;BME280;36665;51.786;21.594;2023-12-14T01:54:27;91304.13;;;1.80;84.32
50696;BME280;36665;51.786;21.594;2023-12-14T02:02:53;91287.27;;;1.75;84.56
50696;BME280;36665;51.786;21.594;2023-12-14T02:11:16;91268.63;;;1.71;84.43
50696;BME280;36665;51.786;21.594;2023-12-14T02:19:41;91254.29;;;1.66;84.50
50696;BME280;36665;51.786;21.594;2023-12-14T02:28:07;91242.73;;;1.64;84.49
50696;BME280;36665;51.786;21.594;2023-12-14T02:36:30;91223.45;;;1.59;84.40
50696;BME280;36665;51.786;21.594;2023-12-14T02:44:56;91184.40;;;1.47;84.51
50696;BME280;36665;51.786;21.594;2023-12-14T02:53:19;91158.92;;;1.41;84.60
50696;BME280;36665;51.786;21.594;2023-12-14T03:01:47;91150.84;;;1.40;84.51
50696;BME280;36665;51.786;21.594;2023-12-14T03:10:11;91145.61;;;1.38;84.50
50696;BME280;36665;51.786;21.594;2023-12-14T03:18:37;91134.42;;;1.35;84.16
50696;BME280;36665;51.786;21.594;2023-12-14T03:27:02;91106.06;;;1.27;84.52
50696;BME280;36665;51.786;21.594;2023-12-14T03:35:25;91085.45;;;1.21;84.58
50696;BME280;36665;51.786;21.594;2023-12-14T03:43:49;91075.73;;;1.19;84.60
50696;BME280;36665;51.786;21.594;2023-12-14T03:52:14;91040.80;;;1.09;84.66
50696;BME280;36665;51.786;21.594;2023-12-14T04:00:41;90993.00;;;0.96;84.58
50696;BME280;36665;51.786;21.594;2023-12-14T04:09:06;90962.08;;;0.88;84.62
50696;BME280;36665;51.786;21.594;2023-12-14T04:17:32;90954.09;;;0.85;84.41
50696;BME280;36665;51.786;21.594;2023-12-14T04:25:57;90932.85;;;0.80;84.51
50696;BME280;36665;51.786;21.594;2023-12-14T04:34:23;90926.08;;;0.78;84.56
50696;BME280;36665;51.786;21.594;2023-12-14T04:42:49;90957.92;;;0.86;84.46
50696;BME280;36665;51.786;21.594;2023-12-14T04:51:14;90939.20;;;0.82;84.41
50696;BME280;36665;51.786;21.594;2023-12-14T04:59:48;90932.44;;;0.80;84.49
50696;BME280;36665;51.786;21.594;2023-12-14T05:08:13;90944.38;;;0.84;84.61
50696;BME280;36665;51.786;21.594;2023-12-14T05:16:40;90923.29;;;0.78;84.36
50696;BME280;36665;51.786;21.594;2023-12-14T05:25:04;90916.78;;;0.77;84.49
50696;BME280;36665;51.786;21.594;2023-12-14T05:33:31;90925.83;;;0.80;84.74
50696;BME280;36665;51.786;21.594;2023-12-14T05:41:58;90921.02;;;0.77;84.64
50696;BME280;36665;51.786;21.594;2023-12-14T05:50:27;90935.86;;;0.81;84.62
50696;BME280;36665;51.786;21.594;2023-12-14T05:58:52;90958.10;;;0.87;84.78
50696;BME280;36665;51.786;21.594;2023-12-14T06:07:21;90989.13;;;0.96;84.84
50696;BME280;36665;51.786;21.594;2023-12-14T06:15:46;91036.77;;;1.09;84.82
50696;BME280;36665;51.786;21.594;2023-12-14T06:24:14;91058.50;;;1.15;84.88
50696;BME280;36665;51.786;21.594;2023-12-14T06:32:38;91050.79;;;1.12;84.95
50696;BME280;36665;51.786;21.594;2023-12-14T06:41:05;91068.89;;;1.17;84.88
50696;BME280;36665;51.786;21.594;2023-12-14T06:49:32;91104.00;;;1.27;85.00
50696;BME280;36665;51.786;21.594;2023-12-14T06:57:57;91126.72;;;1.33;84.79
50696;BME280;36665;51.786;21.594;2023-12-14T07:06:29;91153.80;;;1.41;84.99
50696;BME280;36665;51.786;21.594;2023-12-14T07:14:55;91182.39;;;1.48;85.07
50696;BME280;36665;51.786;21.594;2023-12-14T07:23:23;91168.71;;;1.45;85.13
50696;BME280;36665;51.786;21.594;2023-12-14T07:31:48;91154.11;;;1.40;84.99
50696;BME280;36665;51.786;21.594;2023-12-14T07:40:14;91147.42;;;1.38;85.09
50696;BME280;36665;51.786;21.594;2023-12-14T07:48:40;91129.14;;;1.34;85.23
50696;BME280;36665;51.786;21.594;2023-12-14T07:57:05;91151.00;;;1.40;85.14
50696;BME280;36665;51.786;21.594;2023-12-14T08:05:29;91174.20;;;1.46;85.23
50696;BME280;36665;51.786;21.594;2023-12-14T08:13:53;91173.42;;;1.46;85.13
50696;BME280;36665;51.786;21.594;2023-12-14T08:22:18;91160.02;;;1.43;85.13
50696;BME280;36665;51.786;21.594;2023-12-14T08:30:43;91168.40;;;1.44;85.24
50696;BME280;36665;51.786;21.594;2023-12-14T08:39:09;91199.79;;;1.52;85.22
50696;BME280;36665;51.786;21.594;2023-12-14T08:47:35;91200.10;;;1.53;85.31
50696;BME280;36665;51.786;21.594;2023-12-14T08:56:00;91196.59;;;1.52;85.31
50696;BME280;36665;51.786;21.594;2023-12-14T09:04:26;91216.27;;;1.59;85.41
50696;BME280;36665;51.786;21.594;2023-12-14T09:12:50;91255.23;;;1.69;85.62
50696;BME280;36665;51.786;21.594;2023-12-14T09:21:15;91286.25;;;1.76;85.60
50696;BME280;36665;51.786;21.594;2023-12-14T09:29:39;91273.73;;;1.74;85.54
50696;BME280;36665;51.786;21.594;2023-12-14T09:38:06;91292.16;;;1.78;85.50
50696;BME280;36665;51.786;21.594;2023-12-14T09:46:33;91342.74;;;1.91;85.49
50696;BME280;36665;51.786;21.594;2023-12-14T09:54:58;91342.23;;;1.91;85.71
50696;BME280;36665;51.786;21.594;2023-12-14T10:03:25;91322.23;;;1.87;85.64
50696;BME280;36665;51.786;21.594;2023-12-14T10:12:05;91366.90;;;1.99;85.71
50696;BME280;36665;51.786;21.594;2023-12-14T10:20:30;91394.44;;;2.06;85.91
50696;BME280;36665;51.786;21.594;2023-12-14T10:28:56;91395.80;;;2.07;85.70
50696;BME280;36665;51.786;21.594;2023-12-14T10:37:22;91409.48;;;2.10;85.94
50696;BME280;36665;51.786;21.594;2023-12-14T10:45:52;91454.61;;;2.22;85.94
50696;BME280;36665;51.786;21.594;2023-12-14T10:54:18;91489.36;;;2.31;86.12
50696;BME280;36665;51.786;21.594;2023-12-14T11:02:47;91506.86;;;2.36;86.17
50696;BME280;36665;51.786;21.594;2023-12-14T11:11:10;91520.46;;;2.40;86.04
50696;BME280;36665;51.786;21.594;2023-12-14T11:19:41;91553.31;;;2.48;86.10
50696;BME280;36665;51.786;21.594;2023-12-14T11:28:07;91551.86;;;2.49;85.98
50696;BME280;36665;51.786;21.594;2023-12-14T11:36:33;91521.14;;;2.40;86.18
50696;BME280;36665;51.786;21.594;2023-12-14T11:44:57;91529.06;;;2.41;86.36
50696;BME280;36665;51.786;21.594;2023-12-14T11:53:23;91524.56;;;2.40;86.20
50696;BME280;36665;51.786;21.594;2023-12-14T12:02:22;91501.04;;;2.33;86.31
50696;BME280;36665;51.786;21.594;2023-12-14T12:10:50;91500.46;;;2.34;86.50
50696;BME280;36665;51.786;21.594;2023-12-14T12:19:15;91508.06;;;2.36;86.42
50696;BME280;36665;51.786;21.594;2023-12-14T12:27:40;91488.95;;;2.32;86.30
50696;BME280;36665;51.786;21.594;2023-12-14T12:36:07;91446.27;;;2.19;86.29
50696;BME280;36665;51.786;21.594;2023-12-14T12:44:33;91419.02;;;2.11;86.48
50696;BME280;36665;51.786;21.594;2023-12-14T12:52:59;91433.71;;;2.17;86.47
50696;BME280;36665;51.786;21.594;2023-12-14T13:01:27;91422.15;;;2.14;86.59
50696;BME280;36665;51.786;21.594;2023-12-14T13:09:52;91394.17;;;2.05;86.44
50696;BME280;36665;51.786;21.594;2023-12-14T13:18:16;91398.08;;;2.06;86.25
50696;BME280;36665;51.786;21.594;2023-12-14T13:26:40;91404.15;;;2.08;86.31
50696;BME280;36665;51.786;21.594;2023-12-14T13:35:05;91391.45;;;2.06;86.34
50696;BME280;36665;51.786;21.594;2023-12-14T13:43:34;91401.82;;;2.08;86.31
50696;BME280;36665;51.786;21.594;2023-12-14T13:51:58;91393.77;;;2.05;86.44
50696;BME280;36665;51.786;21.594;2023-12-14T14:00:24;91373.09;;;2.00;86.38
50696;BME280;36665;51.786;21.594;2023-12-14T14:08:49;91352.50;;;1.94;86.36
50696;BME280;36665;51.786;21.594;2023-12-14T14:17:14;91356.54;;;1.95;86.54
50696;BME280;36665;51.786;21.594;2023-12-14T14:25:38;91349.65;;;1.94;86.46
50696;BME280;36665;51.786;21.594;2023-12-14T14:34:07;91332.39;;;1.89;86.34
50696;BME280;36665;51.786;21.594;2023-12-14T14:42:34;91324.56;;;1.86;86.58
50696;BME280;36665;51.786;21.594;2023-12-14T14:51:00;91327.88;;;1.88;86.62
50696;BME280;36665;51.786;21.594;2023-12-14T14:59:25;91297.39;;;1.80;86.35
50696;BME280;36665;51.786;21.594;2023-12-14T15:07:50;91266.83;;;1.72;86.49
50696;BME280;36665;51.786;21.594;2023-12-14T15:16:15;91284.70;;;1.76;86.69
50696;BME280;36665;51.786;21.594;2023-12-14T15:24:40;91308.14;;;1.83;86.38
50696;BME280;36665;51.786;21.594;2023-12-14T15:33:04;91296.40;;;1.79;86.56
50696;BME280;36665;51.786;21.594;2023-12-14T15:41:34;91281.95;;;1.75;86.59
50696;BME280;36665;51.786;21.594;2023-12-14T15:49:58;91304.75;;;1.80;86.83
50696;BME280;36665;51.786;21.594;2023-12-14T15:58:22;91302.67;;;1.79;86.61
50696;BME280;36665;51.786;21.594;2023-12-14T16:06:47;91292.78;;;1.78;86.73
50696;BME280;36665;51.786;21.594;2023-12-14T16:15:12;91275.06;;;1.74;86.66
50696;BME280;36665;51.786;21.594;2023-12-14T16:23:40;91236.15;;;1.63;86.64
50696;BME280;36665;51.786;21.594;2023-12-14T16:32:07;91225.38;;;1.61;86.49
50696;BME280;36665;51.786;21.594;2023-12-14T16:40:30;91245.48;;;1.65;86.52
50696;BME280;36665;51.786;21.594;2023-12-14T16:48:58;91237.65;;;1.64;86.62
50696;BME280;36665;51.786;21.594;2023-12-14T16:57:24;91198.02;;;1.52;86.69
50696;BME280;36665;51.786;21.594;2023-12-14T17:05:50;91175.86;;;1.47;86.69
50696;BME280;36665;51.786;21.594;2023-12-14T17:14:14;91176.52;;;1.47;86.84
50696;BME280;36665;51.786;21.594;2023-12-14T17:22:38;91164.57;;;1.43;86.89
50696;BME280;36665;51.786;21.594;2023-12-14T17:31:03;91130.20;;;1.34;86.55
50696;BME280;36665;51.786;21.594;2023-12-14T17:39:30;91125.38;;;1.33;86.80
50696;BME280;36665;51.786;21.594;2023-12-14T17:47:54;91126.98;;;1.34;86.71
50696;BME280;36665;51.786;21.594;2023-12-14T17:56:18;91108.65;;;1.29;86.46
50696;BME280;36665;51.786;21.594;2023-12-14T18:04:47;91071.09;;;1.19;86.67
50696;BME280;36665;51.786;21.594;2023-12-14T18:13:11;91086.20;;;1.23;86.69
50696;BME280;36665;51.786;21.594;2023-12-14T18:21:36;91111.55;;;1.30;86.75
50696;BME280;36665;51.786;21.594;2023-12-14T18:30:07;91135.31;;;1.36;86.77
50696;BME280;36665;51.786;21.594;2023-12-14T18:38:34;91136.09;;;1.36;86.72
50696;BME280;36665;51.786;21.594;2023-12-14T18:47:01;91138.11;;;1.37;87.02
50696;BME280;36665;51.786;21.594;2023-12-14T18:55:29;91153.02;;;1.41;86.97
50696;BME280;36665;51.786;21.594;2023-12-14T19:03:54;91146.55;;;1.38;87.04
50696;BME280;36665;51.786;21.594;2023-12-14T19:12:22;91123.11;;;1.32;86.81
50696;BME280;36665;51.786;21.594;2023-12-14T19:20:48;91129.05;;;1.34;87.09
50696;BME280;36665;51.786;21.594;2023-12-14T19:29:13;91156.39;;;1.42;86.93
50696;BME280;36665;51.786;21.594;2023-12-14T19:37:36;91169.75;;;1.45;87.21
50696;BME280;36665;51.786;21.594;2023-12-14T19:46:02;91160.07;;;1.42;87.24
50696;BME280;36665;51.786;21.594;2023-12-14T19:54:29;91149.30;;;1.40;87.17
50696;BME280;36665;51.786;21.594;2023-12-14T20:02:53;91167.68;;;1.44;87.10
50696;BME280;36665;51.786;21.594;2023-12-14T20:11:19;91170.73;;;1.45;87.14
50696;BME280;36665;51.786;21.594;2023-12-14T20:19:43;91150.60;;;1.40;87.18
50696;BME280;36665;51.786;21.594;2023-12-14T20:28:09;91157.23;;;1.42;87.16
50696;BME280;36665;51.786;21.594;2023-12-14T20:36:32;91155.98;;;1.41;87.30
50696;BME280;36665;51.786;21.594;2023-12-14T20:45:00;91108.91;;;1.28;87.26
50696;BME280;36665;51.786;21.594;2023-12-14T20:53:26;91083.73;;;1.20;87.41
50696;BME280;36665;51.786;21.594;2023-12-14T21:01:50;91099.64;;;1.26;87.22
50696;BME280;36665;51.786;21.594;2023-12-14T21:10:14;91090.13;;;1.24;87.44
50696;BME280;36665;51.786;21.594;2023-12-14T21:18:38;91061.55;;;1.15;87.22
50696;BME280;36665;51.786;21.594;2023-12-14T21:27:03;91047.38;;;1.11;87.40
50696;BME280;36665;51.786;21.594;2023-12-14T21:35:45;91036.29;;;1.08;87.28
50696;BME280;36665;51.786;21.594;2023-12-14T21:44:11;90997.61;;;0.99;87.31
50696;BME280;36665;51.786;21.594;2023-12-14T21:52:36;90956.59;;;0.87;87.34
50696;BME280;36665;51.786;21.594;2023-12-14T22:01:00;90944.94;;;0.83;87.49
50696;BME280;36665;51.786;21.594;2023-12-14T22:09:25;90979.50;;;0.92;87.51
50696;BME280;36665;51.786;21.594;2023-12-14T22:17:50;90967.71;;;0.90;87.55
50696;BME280;36665;51.786;21.594;2023-12-14T22:26:14;90911.35;;;0.74;87.47
50696;BME280;36665;51.786;21.594;2023-12-14T22:34:41;90887.31;;;0.67;87.60
50696;BME280;36665;51.786;21.594;2023-12-14T22:43:06;90891.34;;;0.69;87.56
50696;BME280;36665;51.786;21.594;2023-12-14T22:51:33;90865.49;;;0.62;87.52
50696;BME280;36665;51.786;21.594;2023-12-14T23:00:01;90836.80;;;0.54;87.41
50696;BME280;36665;51.786;21.594;2023-12-14T23:08:25;90837.53;;;0.54;87.70
50696;BME280;36665;51.786;21.594;2023-12-14T23:16:52;90850.97;;;0.58;87.36
50696;BME280;36665;51.786;21.594;2023-12-14T23:25:19;90843.42;;;0.57;87.44
50696;BME280;36665;51.786;21.594;2023-12-14T23:33:44;90807.52;;;0.46;87.54
50696;BME280;36665;51.786;21.594;2023-12-14T23:42:10;90775.58;;;0.37;87.48
50696;BME280;36665;51.786;21.594;2023-12-14T23:50:34;90764.17;;;0.34;87.56
50696;BME280;36665;51.786;21.594;2023-12-14T23:58:59;90758.23;;;0.32;87.54
